createdAt,value
2023-07-18T00:02:36.686Z,14.575095690016772
2023-07-18T00:05:56.619Z,14.50957293414429
2023-07-18T00:09:17.145Z,14.499258074664434
2023-07-18T00:12:37.014Z,14.427754037332218
2023-07-18T00:16:32.550Z,14.423808462667788
2023-07-18T00:19:52.619Z,14.381383703859061
2023-07-18T00:23:13.770Z,14.34813863255034
2023-07-18T00:26:35.153Z,14.364560612416112
2023-07-18T00:32:29.867Z,14.354995543204696
2023-07-18T00:35:51.182Z,14.303516935822142
2023-07-18T00:39:11.265Z,14.346079330956373
2023-07-18T00:42:31.798Z,14.293727716023495
2023-07-18T00:47:14.477Z,14.187779205117465
2023-07-18T00:50:33.870Z,14.229256239513429
2023-07-18T00:53:53.642Z,14.197424234479875
2023-07-18T00:57:13.246Z,14.098002307046993
2023-07-18T01:05:34.569Z,14.134900639681202
2023-07-18T01:08:54.057Z,14.124448143875844
2023-07-18T01:12:14.257Z,14.07846712458055
2023-07-18T01:15:34.361Z,14.043410497063755
2023-07-18T01:19:43.381Z,14.048720637583896
2023-07-18T01:23:02.940Z,14.054513160654368
2023-07-18T01:26:23.551Z,14.064835885067122
2023-07-18T01:29:43.877Z,14.010288643036924
2023-07-18T01:33:04.660Z,13.998337877516784
2023-07-18T01:36:24.862Z,13.95585151006712
2023-07-18T01:39:48.893Z,13.9571190750839
2023-07-18T01:43:20.116Z,13.975007864932893
2023-07-18T01:46:40.188Z,13.970236472315447
2023-07-18T01:49:59.693Z,13.957497902684574
2023-07-18T01:53:19.934Z,13.91431942114095
2023-07-18T01:58:04.051Z,13.888450346057057
2023-07-18T02:01:24.432Z,13.822105704697996
2023-07-18T02:04:44.339Z,13.833878198406058
2023-07-18T02:08:03.738Z,13.817044620385914
2023-07-18T02:11:25.046Z,13.774902999161066
2023-07-18T02:14:44.545Z,13.76971607592283
2023-07-18T02:18:03.966Z,13.793957109899345
2023-07-18T02:24:27.711Z,13.727291317114085
2023-07-18T02:27:47.542Z,13.768147021812085
2023-07-18T02:31:08.227Z,13.745358378775157
2023-07-18T02:35:30.618Z,13.708589817533545
2023-07-18T02:38:50.399Z,13.63982146602348
2023-07-18T02:42:11.379Z,13.68352689807046
2023-07-18T02:45:31.815Z,13.718285968959725
2023-07-18T02:48:52.127Z,13.675020973154346
2023-07-18T02:52:13.380Z,13.687101510067107
2023-07-18T02:55:33.100Z,13.61907508389261
2023-07-18T02:58:53.164Z,13.624847944630861
2023-07-18T03:02:13.376Z,13.656551489093951
2023-07-18T03:05:33.263Z,13.677938863255015
2023-07-18T03:08:53.462Z,13.639660234899322
2023-07-18T03:12:13.655Z,13.669351667365767
2023-07-18T03:15:33.359Z,13.616399695889257
2023-07-18T03:18:55.988Z,13.607927852348984
2023-07-18T03:22:15.870Z,13.54470165687919
2023-07-18T03:25:35.661Z,13.500941170302006
2023-07-18T03:28:55.668Z,13.513691537332198
2023-07-18T03:32:15.786Z,13.536663695469793
2023-07-18T03:35:36.470Z,13.539510801174485
2023-07-18T03:38:56.710Z,13.548783557046974
2023-07-18T03:43:39.382Z,13.621137007130859
2023-07-18T03:47:54.740Z,13.585968959731531
2023-07-18T03:51:15.248Z,13.528225933305366
2023-07-18T03:54:35.930Z,13.520637583892606
2023-07-18T03:57:56.837Z,13.549775849412745
2023-07-18T04:01:17.417Z,13.552704226090594
2023-07-18T04:04:36.714Z,13.61577705536912
2023-07-18T04:07:57.102Z,13.671521078020126
2023-07-18T04:11:17.502Z,13.641370857802004
2023-07-18T04:14:37.394Z,13.671754404362407
2023-07-18T04:17:57.339Z,13.693919096057046
2023-07-18T04:21:17.486Z,13.682104656040256
2023-07-18T04:24:37.407Z,13.703482854446298
2023-07-18T04:28:24.268Z,13.652805159395966
2023-07-18T04:31:44.282Z,13.670416054949655
2023-07-18T04:35:04.636Z,13.678501205956369
2023-07-18T04:38:25.034Z,13.726669987416098
2023-07-18T04:41:54.686Z,13.76827286073827
2023-07-18T04:45:26.436Z,13.767561084312076
2023-07-18T04:48:46.516Z,13.830053219379206
2023-07-18T04:52:13.188Z,13.850772074244976
2023-07-18T04:55:53.912Z,13.988509333053702
2023-07-18T04:59:14.673Z,14.021961514261752
2023-07-18T05:02:34.489Z,14.039082162332221
2023-07-18T05:08:11.341Z,14.131744179949665
2023-07-18T05:12:12.204Z,14.149736524748324
2023-07-18T05:15:40.668Z,14.096076709312086
2023-07-18T05:18:59.891Z,14.130759752516786
2023-07-18T05:22:20.541Z,14.173596109479872
2023-07-18T05:25:41.615Z,14.191254194630881
2023-07-18T05:29:01.597Z,14.229147441275167
2023-07-18T05:32:22.100Z,14.33932466442953
2023-07-18T05:35:42.408Z,14.431100566275171
2023-07-18T05:39:02.066Z,14.352650482382554
2023-07-18T05:42:22.387Z,14.399508441694627
2023-07-18T05:48:35.635Z,14.86581113674497
2023-07-18T05:52:01.337Z,14.791477034395957
2023-07-18T05:55:22.089Z,14.922176489093951
2023-07-18T05:58:41.709Z,14.924345899748307
2023-07-18T06:02:01.500Z,14.988182938338914
2023-07-18T06:06:16.049Z,14.97290661703019
2023-07-18T06:09:35.941Z,15.040820312500026
2023-07-18T06:12:56.556Z,15.137121172399343
2023-07-18T06:16:17.054Z,15.212939125419474
2023-07-18T06:20:18.173Z,15.364272231543623
2023-07-18T06:23:38.524Z,15.491470480285244
2023-07-18T06:28:41.449Z,15.707317009228195
2023-07-18T06:37:48.316Z,15.951704068791935
2023-07-18T06:41:08.810Z,16.156352244127504
2023-07-18T06:44:29.442Z,15.983616033976508
2023-07-18T06:47:49.862Z,16.097951184983213
2023-07-18T06:51:09.500Z,16.354770081795298
2023-07-18T06:54:30.173Z,16.534246539429517
2023-07-18T06:57:49.905Z,16.66578885276846
2023-07-18T07:01:09.798Z,16.886991401006703
2023-07-18T07:11:03.913Z,17.116150639681194
2023-07-18T07:15:41.070Z,17.34872850251679
2023-07-18T07:19:11.344Z,17.478189230285253
2023-07-18T07:22:31.648Z,17.564824087667773
2023-07-18T07:28:24.061Z,17.82154336199666
2023-07-18T07:31:44.438Z,18.175692114093945
2023-07-18T07:35:06.075Z,18.236554897231542
2023-07-18T07:38:26.384Z,17.934963559144293
2023-07-18T07:41:46.132Z,17.843988569630884
2023-07-18T07:45:05.373Z,17.9590368078859
2023-07-18T07:48:26.262Z,18.228536598154353
2023-07-18T07:53:48.407Z,18.177566589765085
2023-07-18T07:57:08.650Z,18.243912541946294
2023-07-18T08:00:27.947Z,18.23383363045301
2023-07-18T08:03:47.785Z,18.269423762583898
2023-07-18T08:07:10.270Z,18.5564951237416
2023-07-18T08:10:32.284Z,18.66383834941275
2023-07-18T08:13:51.665Z,18.956294567953023
2023-07-18T08:18:26.620Z,19.11419751468119
2023-07-18T08:21:46.513Z,19.12661362206377
2023-07-18T08:25:06.661Z,19.09844929739933
2023-07-18T08:28:26.873Z,19.27303376677853
2023-07-18T08:36:38.201Z,19.730964240771822
2023-07-18T08:39:57.760Z,19.858663223573842
2023-07-18T08:43:17.843Z,20.010422346895993
2023-07-18T08:46:37.069Z,19.899930526426175
2023-07-18T08:49:57.420Z,19.871831742869137
2023-07-18T08:53:18.635Z,20.125793047399313
2023-07-18T08:59:15.462Z,20.06735790687919
2023-07-18T09:04:40.225Z,20.245860423657728
2023-07-18T09:08:00.201Z,20.502170721476496
2023-07-18T09:11:21.972Z,20.42297477978189
2023-07-18T09:15:58.916Z,20.62714188338927
2023-07-18T09:19:19.237Z,20.559988464765084
2023-07-18T09:22:39.624Z,20.620945627097296
2023-07-18T09:25:59.374Z,20.774082424496658
2023-07-18T09:29:19.677Z,21.11872247273489
2023-07-18T09:32:39.474Z,21.213399223993317
2023-07-18T09:36:00.363Z,21.364315488674492
2023-07-18T09:39:20.074Z,21.213100356543613
2023-07-18T09:42:45.294Z,21.1477414534396
2023-07-18T09:46:06.383Z,21.473526635906023
2023-07-18T09:52:51.674Z,21.60148778313757
2023-07-18T09:57:24.374Z,21.830576237416114
2023-07-18T10:02:14.545Z,21.596772755872465
2023-07-18T10:05:35.050Z,21.764810979446306
2023-07-18T10:08:55.136Z,22.225677695050322
2023-07-18T10:12:47.699Z,22.23193687080538
2023-07-18T10:18:08.507Z,22.117395920721496
2023-07-18T10:21:28.930Z,21.938029572147656
2023-07-18T10:24:48.879Z,21.66808541317114
2023-07-18T10:28:08.380Z,21.847464869966448
2023-07-18T10:31:27.903Z,21.776886273070474
2023-07-18T10:34:48.239Z,21.293867973993322
2023-07-18T10:38:09.140Z,21.098277579697967
2023-07-18T10:41:29.267Z,21.259538852768458
2023-07-18T10:44:48.900Z,22.003564125419476
2023-07-18T10:48:09.142Z,22.388928796140924
2023-07-18T10:51:29.394Z,22.206442690855717
2023-07-18T10:54:49.277Z,21.79131055998323
2023-07-18T10:58:09.058Z,21.53472236786913
2023-07-18T11:04:36.767Z,21.269117030201368
2023-07-18T11:07:56.119Z,21.238521130453012
2023-07-18T11:11:16.409Z,21.22626494337249
2023-07-18T11:14:36.194Z,21.10572829278522
2023-07-18T11:17:56.272Z,21.447542208473173
2023-07-18T11:21:15.853Z,22.091821780620812
2023-07-18T11:24:35.744Z,22.35715315645973
2023-07-18T11:27:55.643Z,22.25767093120807
2023-07-18T11:31:26.584Z,21.882091547818803
2023-07-18T11:39:06.154Z,21.86252621644297
2023-07-18T11:42:25.822Z,21.770617921560394
2023-07-18T11:45:45.316Z,21.59096319211409
2023-07-18T11:49:05.478Z,21.45194394924495
2023-07-18T11:52:26.004Z,21.310729079278545
2023-07-18T11:55:45.452Z,21.08283871644294
2023-07-18T11:59:06.172Z,20.89130400587249
2023-07-18T12:07:17.183Z,20.686415950083898
2023-07-18T12:10:37.694Z,20.585174601510058
2023-07-18T12:17:09.795Z,20.357100723573843
2023-07-18T12:20:29.988Z,20.15479105494964
2023-07-18T12:23:49.531Z,19.925146812080524
2023-07-18T12:27:09.102Z,19.652248059983226
2023-07-18T12:30:28.989Z,19.360421036073824
2023-07-18T12:33:48.466Z,19.019493236157714
2023-07-18T12:37:08.870Z,18.94438968120805
2023-07-18T12:40:28.874Z,18.854576080117454
2023-07-18T12:43:48.408Z,18.796941851929525
2023-07-18T12:47:08.096Z,18.843731648489936
2023-07-18T12:50:29.005Z,18.9462890625
2023-07-18T12:53:49.203Z,19.15470585151006
2023-07-18T12:57:09.049Z,19.278250838926148
2023-07-18T13:00:29.365Z,19.26244756711407
2023-07-18T13:03:49.460Z,19.31953911493291
2023-07-18T13:07:09.669Z,19.47152763213087
2023-07-18T13:10:29.544Z,20.083749737835557
2023-07-18T13:13:49.339Z,20.454541998741583
2023-07-18T13:19:37.393Z,20.771168466862417
2023-07-18T13:22:56.555Z,20.90818870595638
2023-07-18T13:26:17.315Z,21.0814649748322
2023-07-18T13:29:37.148Z,21.234411703020143
2023-07-18T13:33:26.914Z,21.444333315855697
2023-07-18T13:36:46.604Z,21.59895527474833
2023-07-18T13:40:06.513Z,21.66458289639261
2023-07-18T13:45:00.890Z,21.83082005033559
2023-07-18T13:48:22.161Z,21.905302275587214
2023-07-18T13:51:41.688Z,21.697373112416102
2023-07-18T13:55:01.161Z,21.163383494127505
2023-07-18T13:58:21.249Z,20.895460622902682
2023-07-18T14:01:40.962Z,20.78269583682886
2023-07-18T14:05:00.915Z,20.723302485318776
2023-07-18T14:10:47.017Z,20.60338585360735
2023-07-18T14:14:07.006Z,20.560567848154356
2023-07-18T14:20:03.560Z,20.581080903942947
2023-07-18T14:23:22.981Z,20.707531984060402
2023-07-18T14:26:42.853Z,20.78294489303693
2023-07-18T14:30:02.694Z,20.891515048238258
2023-07-18T14:33:23.105Z,20.88559668624161
2023-07-18T14:39:29.302Z,20.780767617449644
2023-07-18T14:42:48.472Z,20.724815174077168
2023-07-18T14:46:09.182Z,20.650148122902678
2023-07-18T14:49:29.852Z,20.610694997902684
2023-07-18T14:52:49.338Z,20.716066747063742
2023-07-18T14:56:09.301Z,20.9273358850671
2023-07-18T14:59:29.521Z,21.413854079278536
2023-07-18T15:02:49.865Z,21.540328754194615
2023-07-18T15:06:09.571Z,21.488878984899348
2023-07-18T15:09:29.464Z,21.751065698406055
2023-07-18T15:12:49.964Z,21.672270868288578
2023-07-18T15:16:10.080Z,21.753282298657727
2023-07-18T15:19:30.651Z,22.00112599622483
2023-07-18T15:26:48.816Z,22.055515939597328
2023-07-18T15:30:08.496Z,21.868162751677872
2023-07-18T15:33:29.217Z,21.864926331795306
2023-07-18T15:36:49.501Z,21.904473835989933
2023-07-18T15:40:09.993Z,21.940520134228176
2023-07-18T15:45:17.514Z,21.678473678691287
2023-07-18T15:48:37.287Z,21.578737153942946
2023-07-18T15:51:57.638Z,21.491437709731535
2023-07-18T15:55:19.427Z,21.43063129194632
2023-07-18T16:03:32.113Z,21.07234951761744
2023-07-18T16:06:52.121Z,21.0811516883389
2023-07-18T16:10:13.315Z,21.096084574244955
2023-07-18T16:13:33.550Z,21.068147021812063
2023-07-18T16:16:53.737Z,21.146804215604003
2023-07-18T16:20:14.749Z,21.080733536073797
2023-07-18T16:27:14.200Z,20.919706900167796
2023-07-18T16:31:30.954Z,20.822358693372493
2023-07-18T16:34:51.182Z,20.795031984060405
2023-07-18T16:38:13.442Z,20.738684983221475
2023-07-18T16:41:33.328Z,20.710742187500003
2023-07-18T16:56:51.208Z,20.313023018036922
2023-07-18T17:00:11.141Z,20.272291841442932
2023-07-18T17:03:31.706Z,20.2372968225671
2023-07-18T17:07:00.119Z,20.199486157718113
2023-07-18T17:10:20.301Z,20.13961435612415
2023-07-18T17:13:41.202Z,20.04586566694631
2023-07-18T17:17:16.747Z,20.008187395134236
2023-07-18T17:20:36.538Z,19.96190619756712
2023-07-18T17:25:49.870Z,19.788168519295315
2023-07-18T17:29:09.693Z,19.769894347734898
2023-07-18T17:32:45.771Z,19.69002988674496
2023-07-18T17:45:15.459Z,19.512796245805372
2023-07-18T17:48:34.771Z,19.50342255662752
2023-07-18T17:51:55.155Z,19.508694683305364
2023-07-18T17:55:15.147Z,19.466968592701356
2023-07-18T18:04:29.632Z,19.291466547818764
2023-07-18T18:08:23.614Z,19.27618105075502
2023-07-18T18:12:01.836Z,19.22968749999998
2023-07-18T18:34:37.659Z,19.051622797818794
2023-07-18T18:37:57.787Z,19.07797949874161
2023-07-18T18:41:19.516Z,19.090913380872486
2023-07-18T18:53:33.532Z,18.988438548657726
2023-07-18T18:56:53.873Z,18.94302249370806
2023-07-18T19:00:14.626Z,18.908792994966426
2023-07-18T19:03:35.995Z,18.77759411703019
2023-07-18T19:08:18.779Z,18.777143194211416
2023-07-18T19:12:17.885Z,18.803725356543627
2023-07-18T19:15:37.977Z,18.74459941275167
2023-07-18T19:18:57.873Z,18.691294830117446
2023-07-18T19:22:20.368Z,18.683959469379186
2023-07-18T19:28:22.901Z,18.581938181627503
2023-07-18T19:31:52.645Z,18.55003145973154
2023-07-18T19:36:37.566Z,18.472501572986605
2023-07-18T19:45:45.129Z,18.31046822567113
2023-07-18T19:49:05.411Z,18.315623689177855
2023-07-18T19:52:25.405Z,18.228051593959734
2023-07-18T19:57:07.917Z,18.18713821308725
2023-07-18T20:00:56.782Z,18.249591023489923
2023-07-18T20:04:17.931Z,18.230032246224816
2023-07-18T20:08:18.219Z,18.108652736996653
2023-07-18T20:11:38.416Z,17.969103921979872
2023-07-18T20:14:58.713Z,17.983072042785242
2023-07-18T20:18:20.126Z,17.947287908976502
2023-07-18T20:21:41.441Z,17.868352820889264
2023-07-18T20:25:07.686Z,17.794363464765098
2023-07-18T20:33:10.140Z,17.85530227558726
2023-07-18T20:36:30.788Z,17.79494022651007
2023-07-18T20:39:51.092Z,17.754172346895977
2023-07-18T20:43:31.030Z,17.81807361577182
2023-07-18T20:46:50.308Z,17.911767250419473
2023-07-18T20:53:16.363Z,17.840509647651007
2023-07-18T20:56:36.129Z,17.853813181627537
2023-07-18T20:59:56.529Z,17.774374737835572
2023-07-18T21:03:17.397Z,17.75981281459731
2023-07-18T21:07:09.085Z,17.758963401845637
2023-07-18T21:10:29.477Z,17.830978659815433
2023-07-18T21:16:16.189Z,17.795929897231535
2023-07-18T21:26:08.775Z,17.688602401426174
2023-07-18T21:30:28.072Z,17.726188915687917
2023-07-18T21:33:48.344Z,17.747640520134226
2023-07-18T21:37:08.764Z,17.682731229026842
2023-07-18T21:40:29.343Z,17.622432099412748
2023-07-18T21:43:49.975Z,17.636380557885904
2023-07-18T21:47:10.238Z,17.66792680369127
2023-07-18T21:52:38.399Z,17.690247483221484
2023-07-18T21:55:59.326Z,17.662597000838925
2023-07-18T21:59:20.929Z,17.647736210151006
2023-07-18T22:02:40.494Z,17.653996696728182
2023-07-18T22:06:00.544Z,17.60419856333892
2023-07-18T22:09:20.799Z,17.581626205956375
2023-07-18T22:12:41.641Z,17.533039272231548
